createdAt,value
2022-10-11T00:02:20.692Z,14.50
2022-10-11T00:05:23.600Z,14.65
2022-10-11T00:08:26.209Z,16.30
2022-10-11T00:11:28.600Z,14.45
2022-10-11T00:14:31.029Z,13.40
2022-10-11T00:17:33.642Z,12.50
2022-10-11T00:20:36.073Z,11.05
2022-10-11T00:23:38.995Z,10.50
2022-10-11T00:26:46.383Z,10.45
2022-10-11T00:29:49.417Z,10.45
2022-10-11T00:32:51.864Z,10.68
2022-10-11T00:35:54.340Z,11.10
2022-10-11T00:38:56.730Z,9.97
2022-10-11T00:41:59.146Z,9.68
2022-10-11T00:45:26.330Z,9.68
2022-10-11T00:48:41.061Z,9.23
2022-10-11T00:51:47.543Z,8.82
2022-10-11T00:54:50.269Z,10.47
2022-10-11T00:57:52.993Z,9.43
2022-10-11T01:00:55.477Z,9.70
2022-10-11T01:03:58.314Z,9.20
2022-10-11T01:07:01.927Z,13.00
2022-10-11T01:10:04.651Z,11.37
2022-10-11T01:13:20.757Z,10.48
2022-10-11T01:16:32.162Z,9.77
2022-10-11T01:20:08.350Z,10.63
2022-10-11T01:23:32.547Z,10.05
2022-10-11T01:26:43.686Z,9.70
2022-10-11T01:30:05.820Z,10.00
2022-10-11T01:33:27.828Z,10.32
2022-10-11T01:36:59.449Z,11.77
2022-10-11T01:40:17.712Z,21.50
2022-10-11T01:43:20.887Z,18.93
2022-10-11T01:46:23.930Z,14.60
2022-10-11T01:49:26.311Z,14.95
2022-10-11T01:52:31.618Z,11.52
2022-10-11T01:55:48.872Z,11.13
2022-10-11T01:59:26.039Z,10.23
2022-10-11T02:02:36.984Z,10.80
2022-10-11T02:05:49.203Z,10.57
2022-10-11T02:09:08.955Z,10.88
2022-10-11T02:12:12.970Z,10.63
2022-10-11T02:15:16.821Z,11.07
2022-10-11T02:18:23.057Z,10.65
2022-10-11T02:21:25.909Z,10.70
2022-10-11T02:24:31.381Z,10.85
2022-10-11T02:27:36.381Z,10.38
2022-10-11T02:30:41.101Z,9.93
2022-10-11T02:34:05.090Z,10.63
2022-10-11T02:37:16.739Z,10.65
2022-10-11T02:40:25.916Z,10.65
2022-10-11T02:43:28.206Z,9.73
2022-10-11T02:46:30.953Z,10.47
2022-10-11T02:49:35.783Z,12.10
2022-10-11T02:52:38.176Z,12.23
2022-10-11T02:55:40.644Z,11.18
2022-10-11T02:58:43.000Z,10.43
2022-10-11T03:01:45.518Z,10.33
2022-10-11T03:04:47.935Z,15.18
2022-10-11T03:07:50.339Z,14.05
2022-10-11T03:10:52.968Z,15.18
2022-10-11T03:13:55.368Z,13.82
2022-10-11T03:17:12.089Z,13.20
2022-10-11T03:20:20.350Z,11.55
2022-10-11T03:23:22.665Z,11.68
2022-10-11T03:26:25.211Z,11.05
2022-10-11T03:29:27.549Z,10.27
2022-10-11T03:32:29.900Z,10.40
2022-10-11T03:35:32.269Z,10.65
2022-10-11T03:38:34.610Z,9.13
2022-10-11T03:41:36.908Z,9.68
2022-10-11T03:44:39.414Z,9.23
2022-10-11T03:47:42.117Z,11.00
2022-10-11T03:50:44.567Z,9.10
2022-10-11T03:53:46.880Z,8.98
2022-10-11T03:56:49.252Z,10.35
2022-10-11T03:59:51.708Z,9.75
2022-10-11T04:02:54.424Z,12.50
2022-10-11T04:05:56.747Z,17.83
2022-10-11T04:08:59.354Z,9.43
2022-10-11T04:12:01.725Z,10.93
2022-10-11T04:15:05.710Z,14.82
2022-10-11T04:18:08.527Z,17.83
2022-10-11T04:21:11.061Z,15.05
2022-10-11T04:24:13.404Z,11.30
2022-10-11T04:27:15.770Z,10.57
2022-10-11T04:30:18.331Z,10.65
2022-10-11T04:33:20.826Z,10.13
2022-10-11T04:36:24.103Z,10.63
2022-10-11T04:39:26.896Z,11.35
2022-10-11T04:42:29.262Z,9.43
2022-10-11T04:45:32.150Z,10.73
2022-10-11T04:48:34.918Z,10.63
2022-10-11T04:51:37.341Z,9.75
2022-10-11T04:54:39.772Z,9.52
2022-10-11T04:57:42.583Z,9.93
2022-10-11T05:00:44.984Z,22.70
2022-10-11T05:03:48.612Z,28.73
2022-10-11T05:06:51.232Z,12.35
2022-10-11T05:09:54.636Z,14.60
2022-10-11T05:12:57.209Z,11.13
2022-10-11T05:15:59.808Z,9.65
2022-10-11T05:19:02.304Z,9.60
2022-10-11T05:22:04.736Z,9.90
2022-10-11T05:25:07.385Z,10.00
2022-10-11T05:28:09.776Z,9.38
2022-10-11T05:31:12.279Z,25.65
2022-10-11T05:34:14.680Z,11.53
2022-10-11T05:37:17.141Z,10.88
2022-10-11T05:40:20.124Z,10.45
2022-10-11T05:43:22.464Z,9.32
2022-10-11T05:46:24.838Z,9.80
2022-10-11T05:49:27.264Z,9.47
2022-10-11T05:52:30.760Z,9.77
2022-10-11T05:55:40.444Z,9.52
2022-10-11T05:58:42.841Z,9.45
2022-10-11T06:01:45.281Z,10.52
2022-10-11T06:04:47.853Z,9.77
2022-10-11T06:07:50.220Z,11.88
2022-10-11T06:10:52.550Z,10.73
2022-10-11T06:13:56.031Z,10.88
2022-10-11T06:16:58.366Z,11.23
2022-10-11T06:20:00.739Z,15.47
2022-10-11T06:23:03.181Z,12.98
2022-10-11T06:26:08.183Z,13.02
2022-10-11T06:29:11.476Z,16.45
2022-10-11T06:32:13.893Z,12.50
2022-10-11T06:35:16.411Z,14.60
2022-10-11T06:38:19.202Z,14.82
2022-10-11T06:41:28.544Z,13.15
2022-10-11T06:44:35.506Z,14.52
2022-10-11T06:47:38.634Z,14.43
2022-10-11T06:50:59.136Z,14.33
2022-10-11T06:54:02.632Z,14.30
2022-10-11T06:57:05.044Z,14.25
2022-10-11T07:00:12.461Z,15.15
2022-10-11T07:03:15.208Z,14.73
2022-10-11T07:06:22.181Z,13.90
2022-10-11T07:09:24.645Z,13.95
2022-10-11T07:12:27.107Z,13.10
2022-10-11T07:15:29.565Z,12.13
2022-10-11T07:18:32.657Z,12.73
2022-10-11T07:21:35.658Z,12.67
2022-10-11T07:24:37.997Z,12.70
2022-10-11T07:27:40.641Z,11.20
2022-10-11T07:30:44.090Z,11.15
2022-10-11T07:33:46.491Z,10.32
2022-10-11T07:36:49.038Z,10.67
2022-10-11T07:39:51.469Z,11.55
2022-10-11T07:42:53.836Z,12.02
2022-10-11T07:45:57.071Z,12.15
2022-10-11T07:48:59.509Z,12.20
2022-10-11T07:52:01.918Z,12.60
2022-10-11T07:55:04.704Z,11.25
2022-10-11T07:58:11.408Z,12.73
2022-10-11T08:01:14.674Z,12.52
2022-10-11T08:04:17.307Z,14.50
2022-10-11T08:07:19.744Z,13.43
2022-10-11T08:10:22.875Z,12.00
2022-10-11T08:13:25.699Z,9.90
2022-10-11T08:16:28.292Z,10.15
2022-10-11T08:19:30.692Z,10.10
2022-10-11T08:22:35.228Z,10.30
2022-10-11T08:25:42.493Z,9.75
2022-10-11T08:28:45.052Z,9.90
2022-10-11T08:31:47.486Z,9.52
2022-10-11T08:35:22.866Z,9.40
2022-10-11T08:38:25.798Z,8.93
2022-10-11T08:41:51.275Z,8.25
2022-10-11T08:45:10.669Z,7.93
2022-10-11T08:48:16.610Z,9.20
2022-10-11T08:51:30.710Z,9.48
2022-10-11T08:54:56.361Z,9.67
2022-10-11T08:57:59.192Z,8.90
2022-10-11T09:01:03.048Z,8.48
2022-10-11T09:04:06.161Z,8.57
2022-10-11T09:07:39.832Z,7.20
2022-10-11T09:10:50.384Z,7.33
2022-10-11T09:13:58.758Z,7.05
2022-10-11T09:17:11.852Z,8.35
2022-10-11T09:20:35.592Z,7.68
2022-10-11T09:24:02.036Z,7.22
2022-10-11T09:27:38.104Z,6.80
2022-10-11T09:30:49.198Z,6.82
2022-10-11T09:33:52.218Z,7.18
2022-10-11T09:37:04.716Z,7.57
2022-10-11T09:40:19.203Z,7.97
2022-10-11T09:43:21.901Z,6.47
2022-10-11T09:46:34.642Z,6.30
2022-10-11T09:53:06.564Z,7.10
2022-10-11T09:56:09.684Z,7.45
2022-10-11T09:59:29.451Z,8.40
2022-10-11T10:02:49.325Z,8.02
2022-10-11T10:06:06.883Z,7.50
2022-10-11T10:09:30.270Z,7.47
2022-10-11T10:12:32.650Z,7.13
2022-10-11T10:15:36.557Z,6.73
2022-10-11T10:18:43.055Z,6.90
2022-10-11T10:21:47.625Z,6.50
2022-10-11T10:24:50.997Z,7.85
2022-10-11T10:27:58.605Z,7.40
2022-10-11T10:31:00.976Z,7.60
2022-10-11T10:34:16.069Z,8.90
2022-10-11T10:37:25.551Z,7.25
2022-10-11T10:40:40.610Z,7.68
2022-10-11T10:43:45.032Z,7.35
2022-10-11T10:46:56.385Z,7.93
2022-10-11T10:50:31.784Z,7.78
2022-10-11T10:54:02.824Z,11.20
2022-10-11T10:57:34.664Z,7.75
2022-10-11T11:00:42.424Z,7.47
2022-10-11T11:03:54.019Z,8.60
2022-10-11T11:07:08.459Z,8.07
2022-10-11T11:10:19.659Z,8.50
2022-10-11T11:13:37.122Z,10.80
2022-10-11T11:16:47.295Z,9.38
2022-10-11T11:19:55.726Z,10.17
2022-10-11T11:23:03.804Z,9.90
2022-10-11T11:26:25.870Z,9.60
2022-10-11T11:30:01.736Z,12.77
2022-10-11T11:33:31.111Z,10.82
2022-10-11T11:36:39.181Z,10.63
2022-10-11T11:39:49.152Z,10.75
2022-10-11T11:42:57.192Z,10.02
2022-10-11T11:46:06.567Z,11.45
2022-10-11T11:49:21.556Z,10.30
2022-10-11T11:52:33.879Z,10.83
2022-10-11T11:55:49.270Z,11.13
2022-10-11T11:58:59.545Z,10.70
2022-10-11T12:02:23.469Z,10.10
2022-10-11T12:05:29.481Z,9.45
2022-10-11T12:08:33.642Z,11.20
2022-10-11T12:11:43.199Z,10.73
2022-10-11T12:14:45.568Z,10.90
2022-10-11T12:17:57.176Z,11.48
2022-10-11T12:21:34.580Z,11.13
2022-10-11T12:24:58.973Z,11.13
2022-10-11T12:28:23.117Z,12.48
2022-10-11T12:31:31.480Z,11.57
2022-10-11T12:37:44.602Z,11.27
2022-10-11T12:40:48.725Z,11.13
2022-10-11T12:43:51.979Z,11.32
2022-10-11T12:46:54.312Z,11.38
2022-10-11T12:50:25.852Z,11.35
2022-10-11T12:54:14.693Z,11.57
2022-10-11T12:57:55.201Z,10.70
2022-10-11T13:00:57.957Z,11.73
2022-10-11T13:04:04.434Z,11.38
2022-10-11T13:07:13.745Z,11.15
2022-10-11T13:10:23.128Z,11.10
2022-10-11T13:13:41.878Z,11.27
2022-10-11T13:16:49.340Z,12.82
2022-10-11T13:20:22.621Z,12.02
2022-10-11T13:23:29.158Z,11.70
2022-10-11T13:26:31.930Z,10.60
2022-10-11T13:29:39.907Z,12.17
2022-10-11T13:32:42.575Z,12.13
2022-10-11T13:35:44.969Z,11.18
2022-10-11T13:38:54.079Z,14.25
2022-10-11T13:41:57.600Z,12.15
2022-10-11T13:45:00.413Z,11.07
2022-10-11T13:48:03.174Z,11.85
2022-10-11T13:51:29.074Z,11.68
2022-10-11T13:54:54.459Z,11.00
2022-10-11T13:57:58.443Z,11.82
2022-10-11T14:01:04.154Z,11.23
2022-10-11T14:04:09.457Z,11.35
2022-10-11T14:07:26.798Z,13.60
2022-10-11T14:10:29.525Z,13.73
2022-10-11T14:13:31.879Z,13.52
2022-10-11T14:16:34.288Z,11.40
2022-10-11T14:19:36.800Z,13.02
2022-10-11T14:22:39.167Z,17.35
2022-10-11T14:25:41.585Z,34.33
2022-10-11T14:28:43.981Z,21.40
2022-10-11T14:31:46.641Z,28.63
2022-10-11T14:34:49.703Z,27.85
2022-10-11T14:37:52.970Z,33.83
2022-10-11T14:40:55.294Z,39.58
2022-10-11T14:43:57.893Z,26.52
2022-10-11T14:47:01.298Z,12.43
2022-10-11T14:50:22.375Z,11.20
2022-10-11T14:53:25.076Z,13.02
2022-10-11T14:56:27.591Z,11.57
2022-10-11T14:59:36.513Z,12.43
2022-10-11T15:02:38.951Z,12.10
2022-10-11T15:05:41.310Z,12.82
2022-10-11T15:08:44.109Z,16.92
2022-10-11T15:11:48.008Z,16.73
2022-10-11T15:14:50.463Z,13.98
2022-10-11T15:17:55.238Z,14.13
2022-10-11T15:20:58.190Z,17.00
2022-10-11T15:24:01.027Z,15.70
2022-10-11T15:27:03.603Z,17.42
2022-10-11T15:30:38.489Z,18.63
2022-10-11T15:33:43.829Z,25.70
2022-10-11T15:36:46.250Z,22.83
2022-10-11T15:39:49.323Z,26.48
2022-10-11T15:42:53.699Z,22.20
2022-10-11T15:45:57.454Z,24.95
2022-10-11T15:49:04.497Z,27.23
2022-10-11T15:52:09.017Z,52.90
2022-10-11T15:55:11.421Z,46.25
2022-10-11T15:58:15.750Z,34.63
2022-10-11T16:01:19.873Z,32.55
2022-10-11T16:04:22.289Z,31.10
2022-10-11T16:07:24.645Z,30.52
2022-10-11T16:10:27.207Z,31.30
2022-10-11T16:13:29.653Z,31.17
2022-10-11T16:16:32.152Z,29.40
2022-10-11T16:19:34.505Z,25.40
2022-10-11T16:22:36.858Z,20.95
2022-10-11T16:25:40.079Z,20.98
2022-10-11T16:28:42.672Z,18.92
2022-10-11T16:31:45.202Z,25.92
2022-10-11T16:34:47.629Z,21.17
2022-10-11T16:37:50.252Z,23.70
2022-10-11T16:40:52.798Z,25.10
2022-10-11T16:43:55.726Z,20.65
2022-10-11T16:46:58.583Z,17.85
2022-10-11T16:50:01.058Z,21.03
2022-10-11T16:53:03.484Z,21.00
2022-10-11T16:56:07.500Z,23.88
2022-10-11T16:59:11.400Z,27.77
2022-10-11T17:02:19.215Z,21.27
2022-10-11T17:05:21.681Z,24.10
2022-10-11T17:08:24.028Z,20.00
2022-10-11T17:11:26.448Z,26.35
2022-10-11T17:14:29.469Z,31.55
2022-10-11T17:17:31.865Z,29.88
2022-10-11T17:20:34.354Z,21.23
2022-10-11T17:23:37.102Z,21.13
2022-10-11T17:26:39.474Z,22.10
2022-10-11T17:29:41.950Z,22.23
2022-10-11T17:32:44.303Z,27.85
2022-10-11T17:35:46.798Z,26.10
2022-10-11T17:38:50.526Z,25.00
2022-10-11T17:41:53.385Z,39.95
2022-10-11T17:44:55.845Z,42.75
2022-10-11T17:48:00.537Z,34.50
2022-10-11T17:51:10.745Z,32.07
2022-10-11T17:54:13.381Z,30.60
2022-10-11T17:57:16.020Z,28.13
2022-10-11T18:00:19.404Z,31.33
2022-10-11T18:03:21.840Z,29.42
2022-10-11T18:06:26.372Z,29.80
2022-10-11T18:09:29.245Z,30.92
2022-10-11T18:12:31.669Z,25.48
2022-10-11T18:15:34.054Z,25.70
2022-10-11T18:18:36.560Z,25.42
2022-10-11T18:21:39.319Z,23.97
2022-10-11T18:24:41.649Z,27.55
2022-10-11T18:27:44.046Z,25.27
2022-10-11T18:30:47.497Z,35.88
2022-10-11T18:33:51.077Z,33.20
2022-10-11T18:36:53.472Z,28.70
2022-10-11T18:39:56.095Z,33.58
2022-10-11T18:42:58.493Z,29.77
2022-10-11T18:46:11.884Z,27.50
2022-10-11T18:49:14.666Z,27.38
2022-10-11T18:52:17.203Z,25.97
2022-10-11T18:55:19.935Z,26.25
2022-10-11T18:58:22.278Z,26.50
2022-10-11T19:01:25.649Z,25.08
2022-10-11T19:04:28.545Z,30.95
2022-10-11T19:07:30.903Z,40.00
2022-10-11T19:10:34.236Z,29.73
2022-10-11T19:13:36.892Z,26.48
2022-10-11T19:16:45.307Z,23.88
2022-10-11T19:19:48.684Z,27.63
2022-10-11T19:22:51.133Z,23.63
2022-10-11T19:25:57.063Z,23.60
2022-10-11T19:29:00.464Z,23.70
2022-10-11T19:32:03.594Z,22.05
2022-10-11T19:35:06.662Z,23.63
2022-10-11T19:38:09.116Z,23.63
2022-10-11T19:41:12.981Z,20.83
2022-10-11T19:44:15.929Z,18.75
2022-10-11T19:47:18.477Z,19.63
2022-10-11T19:50:20.934Z,19.98
2022-10-11T19:53:23.303Z,21.20
2022-10-11T19:56:27.611Z,21.95
2022-10-11T19:59:30.131Z,23.33
2022-10-11T20:02:33.438Z,22.90
2022-10-11T20:05:37.731Z,21.95
2022-10-11T20:08:40.464Z,25.67
2022-10-11T20:11:42.956Z,22.63
2022-10-11T20:14:45.316Z,19.90
2022-10-11T20:17:48.214Z,18.52
2022-10-11T20:20:54.950Z,18.65
2022-10-11T20:24:01.981Z,16.07
2022-10-11T20:27:05.457Z,15.48
2022-10-11T20:30:08.260Z,31.35
2022-10-11T20:33:10.764Z,20.58
2022-10-11T20:36:19.606Z,24.17
2022-10-11T20:39:22.057Z,19.97
2022-10-11T20:42:28.869Z,20.20
2022-10-11T20:45:32.165Z,18.27
2022-10-11T20:48:35.595Z,14.55
2022-10-11T20:51:39.752Z,15.02
2022-10-11T20:54:42.074Z,14.23
2022-10-11T20:57:44.458Z,15.52
2022-10-11T21:00:47.797Z,14.05
2022-10-11T21:03:50.456Z,13.07
2022-10-11T21:06:52.779Z,13.23
2022-10-11T21:09:55.211Z,11.93
2022-10-11T21:12:58.179Z,11.57
2022-10-11T21:16:06.614Z,13.45
2022-10-11T21:19:12.777Z,13.38
2022-10-11T21:22:15.147Z,13.50
2022-10-11T21:25:17.553Z,14.40
2022-10-11T21:28:19.949Z,13.10
2022-10-11T21:31:23.217Z,12.25
2022-10-11T21:34:25.637Z,13.55
2022-10-11T21:37:28.037Z,12.80
2022-10-11T21:40:30.427Z,13.10
2022-10-11T21:43:34.086Z,12.15
2022-10-11T21:47:01.728Z,14.15
2022-10-11T21:49:58.851Z,14.85
2022-10-11T21:53:01.353Z,13.70
2022-10-11T21:56:03.925Z,12.90
2022-10-11T21:59:11.245Z,13.65
2022-10-11T22:02:14.918Z,13.25
2022-10-11T22:05:17.281Z,14.55
2022-10-11T22:08:19.718Z,12.90
2022-10-11T22:11:22.077Z,13.33
2022-10-11T22:14:24.499Z,14.30
2022-10-11T22:17:26.888Z,13.65
2022-10-11T22:20:32.356Z,14.32
2022-10-11T22:23:34.854Z,15.43
2022-10-11T22:26:37.224Z,15.50
2022-10-11T22:29:39.593Z,15.73
2022-10-11T22:32:41.992Z,14.95
2022-10-11T22:35:44.312Z,14.23
2022-10-11T22:38:47.149Z,13.13
2022-10-11T22:41:49.506Z,11.00
2022-10-11T22:44:51.883Z,11.00
2022-10-11T22:47:54.268Z,12.48
2022-10-11T22:50:56.721Z,12.15
2022-10-11T22:53:59.114Z,10.70
2022-10-11T22:57:01.503Z,11.80
2022-10-11T23:00:05.025Z,12.02
2022-10-11T23:03:07.495Z,11.93
2022-10-11T23:06:09.946Z,12.27
2022-10-11T23:09:12.341Z,12.25
2022-10-11T23:12:14.793Z,11.83
2022-10-11T23:15:17.356Z,11.15
2022-10-11T23:18:19.952Z,12.60
2022-10-11T23:21:22.374Z,12.60
2022-10-11T23:24:24.754Z,13.02
2022-10-11T23:27:29.119Z,11.90
2022-10-11T23:30:31.746Z,12.82
2022-10-11T23:33:34.492Z,12.48
2022-10-11T23:36:37.191Z,11.93
2022-10-11T23:39:39.855Z,11.55
2022-10-11T23:42:42.218Z,12.07
2022-10-11T23:45:45.127Z,10.40
2022-10-11T23:48:47.588Z,11.35
2022-10-11T23:51:50.025Z,11.02
2022-10-11T23:54:52.464Z,10.20
2022-10-11T23:57:54.838Z,10.73
